sensor_id;sensor_type;location;lat;lon;timestamp;temperature;humidity
22633;DHT22;11483;55.828;37.488;2022-12-29T00:01:32;1.00;99.90
22633;DHT22;11483;55.828;37.488;2022-12-29T00:03:58;1.00;99.90
22633;DHT22;11483;55.828;37.488;2022-12-29T00:06:24;0.90;99.90
22633;DHT22;11483;55.828;37.488;2022-12-29T00:08:53;0.80;99.90
22633;DHT22;11483;55.828;37.488;2022-12-29T00:11:22;0.80;99.90
22633;DHT22;11483;55.828;37.488;2022-12-29T00:13:48;0.80;99.90
22633;DHT22;11483;55.828;37.488;2022-12-29T00:16:34;0.70;99.90
22633;DHT22;11483;55.828;37.488;2022-12-29T00:19:01;0.70;99.90
22633;DHT22;11483;55.828;37.488;2022-12-29T00:21:27;0.70;99.90
22633;DHT22;11483;55.828;37.488;2022-12-29T00:24:18;0.70;99.90
22633;DHT22;11483;55.828;37.488;2022-12-29T00:26:53;0.70;99.90
22633;DHT22;11483;55.828;37.488;2022-12-29T00:29:38;0.80;99.90
22633;DHT22;11483;55.828;37.488;2022-12-29T00:32:23;0.80;99.90
22633;DHT22;11483;55.828;37.488;2022-12-29T00:35:09;0.70;99.90
22633;DHT22;11483;55.828;37.488;2022-12-29T00:37:47;0.60;99.90
22633;DHT22;11483;55.828;37.488;2022-12-29T00:40:32;0.50;99.90
22633;DHT22;11483;55.828;37.488;2022-12-29T00:43:16;0.50;99.90
22633;DHT22;11483;55.828;37.488;2022-12-29T00:46:00;0.30;99.90
22633;DHT22;11483;55.828;37.488;2022-12-29T00:48:26;0.40;99.90
22633;DHT22;11483;55.828;37.488;2022-12-29T00:51:10;0.40;99.90
22633;DHT22;11483;55.828;37.488;2022-12-29T00:53:36;0.30;99.90
22633;DHT22;11483;55.828;37.488;2022-12-29T00:56:02;0.30;99.90
22633;DHT22;11483;55.828;37.488;2022-12-29T00:58:29;0.30;99.90
22633;DHT22;11483;55.828;37.488;2022-12-29T01:01:06;0.30;99.90
22633;DHT22;11483;55.828;37.488;2022-12-29T01:03:33;0.30;99.90
22633;DHT22;11483;55.828;37.488;2022-12-29T01:06:04;0.20;99.90
22633;DHT22;11483;55.828;37.488;2022-12-29T01:08:31;0.30;99.90
22633;DHT22;11483;55.828;37.488;2022-12-29T01:11:00;0.30;99.90
22633;DHT22;11483;55.828;37.488;2022-12-29T01:13:26;0.40;99.90
22633;DHT22;11483;55.828;37.488;2022-12-29T01:15:52;0.40;99.90
22633;DHT22;11483;55.828;37.488;2022-12-29T01:18:19;0.40;99.90
22633;DHT22;11483;55.828;37.488;2022-12-29T01:20:45;0.40;99.90
22633;DHT22;11483;55.828;37.488;2022-12-29T01:23:11;0.40;99.90
22633;DHT22;11483;55.828;37.488;2022-12-29T01:25:37;0.30;99.90
22633;DHT22;11483;55.828;37.488;2022-12-29T01:28:03;0.30;99.90
22633;DHT22;11483;55.828;37.488;2022-12-29T01:30:29;0.30;99.90
22633;DHT22;11483;55.828;37.488;2022-12-29T01:32:55;0.20;99.90
22633;DHT22;11483;55.828;37.488;2022-12-29T01:35:21;0.10;99.90
22633;DHT22;11483;55.828;37.488;2022-12-29T01:37:47;0.20;99.90
22633;DHT22;11483;55.828;37.488;2022-12-29T01:40:13;0.10;99.90
22633;DHT22;11483;55.828;37.488;2022-12-29T01:42:38;0.10;99.90
22633;DHT22;11483;55.828;37.488;2022-12-29T01:45:12;0.10;99.90
22633;DHT22;11483;55.828;37.488;2022-12-29T01:50:16;0.00;99.90
22633;DHT22;11483;55.828;37.488;2022-12-29T01:53:32;0.00;99.90
22633;DHT22;11483;55.828;37.488;2022-12-29T01:55:39;0.00;99.90
22633;DHT22;11483;55.828;37.488;2022-12-29T01:58:06;0.00;99.90
22633;DHT22;11483;55.828;37.488;2022-12-29T02:00:36;-0.10;99.90
22633;DHT22;11483;55.828;37.488;2022-12-29T02:03:04;-0.10;99.90
22633;DHT22;11483;55.828;37.488;2022-12-29T02:08:11;-0.20;99.90
22633;DHT22;11483;55.828;37.488;2022-12-29T02:10:39;-0.20;99.90
22633;DHT22;11483;55.828;37.488;2022-12-29T02:13:06;-0.20;99.90
22633;DHT22;11483;55.828;37.488;2022-12-29T02:31:58;-0.60;99.90
22633;DHT22;11483;55.828;37.488;2022-12-29T02:34:53;-0.70;99.90
22633;DHT22;11483;55.828;37.488;2022-12-29T02:42:59;-0.90;99.90
22633;DHT22;11483;55.828;37.488;2022-12-29T02:45:46;-1.00;99.90
22633;DHT22;11483;55.828;37.488;2022-12-29T02:48:30;-1.10;99.90
22633;DHT22;11483;55.828;37.488;2022-12-29T02:51:18;-1.10;99.90
22633;DHT22;11483;55.828;37.488;2022-12-29T02:53:45;-1.10;99.90
22633;DHT22;11483;55.828;37.488;2022-12-29T02:56:30;-1.00;99.90
22633;DHT22;11483;55.828;37.488;2022-12-29T02:58:56;-1.00;99.90
22633;DHT22;11483;55.828;37.488;2022-12-29T03:07:14;-1.10;99.90
22633;DHT22;11483;55.828;37.488;2022-12-29T03:10:01;-1.20;99.90
22633;DHT22;11483;55.828;37.488;2022-12-29T03:12:31;-1.10;99.90
22633;DHT22;11483;55.828;37.488;2022-12-29T03:15:28;-1.20;99.90
22633;DHT22;11483;55.828;37.488;2022-12-29T03:21:15;-1.10;99.90
22633;DHT22;11483;55.828;37.488;2022-12-29T03:23:44;-1.10;99.90
22633;DHT22;11483;55.828;37.488;2022-12-29T03:26:16;-1.10;99.90
22633;DHT22;11483;55.828;37.488;2022-12-29T03:28:54;-1.10;99.90
22633;DHT22;11483;55.828;37.488;2022-12-29T03:31:23;-1.10;99.90
22633;DHT22;11483;55.828;37.488;2022-12-29T03:33:51;-1.10;99.90
22633;DHT22;11483;55.828;37.488;2022-12-29T03:36:30;-1.10;99.90
22633;DHT22;11483;55.828;37.488;2022-12-29T03:39:09;-1.20;99.90
22633;DHT22;11483;55.828;37.488;2022-12-29T03:41:38;-1.10;99.90
22633;DHT22;11483;55.828;37.488;2022-12-29T03:44:08;-1.10;99.90
22633;DHT22;11483;55.828;37.488;2022-12-29T03:46:35;-1.20;99.90
22633;DHT22;11483;55.828;37.488;2022-12-29T03:49:01;-1.20;99.90
22633;DHT22;11483;55.828;37.488;2022-12-29T03:51:27;-1.20;99.90
22633;DHT22;11483;55.828;37.488;2022-12-29T03:53:52;-1.20;99.90
22633;DHT22;11483;55.828;37.488;2022-12-29T03:56:18;-1.20;99.90
22633;DHT22;11483;55.828;37.488;2022-12-29T03:58:47;-1.20;99.90
22633;DHT22;11483;55.828;37.488;2022-12-29T04:01:13;-1.10;99.90
22633;DHT22;11483;55.828;37.488;2022-12-29T04:03:39;-1.10;99.90
22633;DHT22;11483;55.828;37.488;2022-12-29T04:06:05;-1.20;99.90
22633;DHT22;11483;55.828;37.488;2022-12-29T04:08:31;-1.20;99.90
22633;DHT22;11483;55.828;37.488;2022-12-29T04:10:56;-1.20;99.90
22633;DHT22;11483;55.828;37.488;2022-12-29T04:13:22;-1.30;99.90
22633;DHT22;11483;55.828;37.488;2022-12-29T04:15:48;-1.30;99.90
22633;DHT22;11483;55.828;37.488;2022-12-29T04:18:14;-1.20;99.90
22633;DHT22;11483;55.828;37.488;2022-12-29T04:20:41;-1.20;99.90
22633;DHT22;11483;55.828;37.488;2022-12-29T04:23:27;-1.20;99.90
22633;DHT22;11483;55.828;37.488;2022-12-29T04:25:53;-1.20;99.90
22633;DHT22;11483;55.828;37.488;2022-12-29T04:28:19;-1.30;99.90
22633;DHT22;11483;55.828;37.488;2022-12-29T04:30:46;-1.30;99.90
22633;DHT22;11483;55.828;37.488;2022-12-29T04:33:12;-1.30;99.90
22633;DHT22;11483;55.828;37.488;2022-12-29T04:35:38;-1.30;99.90
22633;DHT22;11483;55.828;37.488;2022-12-29T04:38:04;-1.20;99.90
22633;DHT22;11483;55.828;37.488;2022-12-29T04:40:30;-1.20;99.90
22633;DHT22;11483;55.828;37.488;2022-12-29T04:42:56;-1.10;99.90
22633;DHT22;11483;55.828;37.488;2022-12-29T04:45:22;-1.10;99.90
22633;DHT22;11483;55.828;37.488;2022-12-29T04:47:48;-1.10;99.90
22633;DHT22;11483;55.828;37.488;2022-12-29T04:50:14;-1.10;99.90
22633;DHT22;11483;55.828;37.488;2022-12-29T04:52:40;-1.20;99.90
22633;DHT22;11483;55.828;37.488;2022-12-29T04:55:06;-1.20;99.90
22633;DHT22;11483;55.828;37.488;2022-12-29T04:57:32;-1.20;99.90
22633;DHT22;11483;55.828;37.488;2022-12-29T04:59:58;-1.30;99.90
22633;DHT22;11483;55.828;37.488;2022-12-29T05:02:23;-1.30;99.90
22633;DHT22;11483;55.828;37.488;2022-12-29T05:04:49;-1.40;99.90
22633;DHT22;11483;55.828;37.488;2022-12-29T05:07:15;-1.50;99.90
22633;DHT22;11483;55.828;37.488;2022-12-29T05:09:41;-1.50;99.90
22633;DHT22;11483;55.828;37.488;2022-12-29T05:12:07;-1.60;99.90
22633;DHT22;11483;55.828;37.488;2022-12-29T05:14:33;-1.60;99.90
22633;DHT22;11483;55.828;37.488;2022-12-29T05:16:59;-1.50;99.90
22633;DHT22;11483;55.828;37.488;2022-12-29T05:19:25;-1.60;99.90
22633;DHT22;11483;55.828;37.488;2022-12-29T05:21:51;-1.60;99.90
22633;DHT22;11483;55.828;37.488;2022-12-29T05:24:17;-1.50;99.90
22633;DHT22;11483;55.828;37.488;2022-12-29T05:26:43;-1.60;99.90
22633;DHT22;11483;55.828;37.488;2022-12-29T05:29:08;-1.50;99.90
22633;DHT22;11483;55.828;37.488;2022-12-29T05:31:34;-1.50;99.90
22633;DHT22;11483;55.828;37.488;2022-12-29T05:34:01;-1.40;99.90
22633;DHT22;11483;55.828;37.488;2022-12-29T05:36:27;-1.50;99.90
22633;DHT22;11483;55.828;37.488;2022-12-29T05:38:53;-1.60;99.90
22633;DHT22;11483;55.828;37.488;2022-12-29T05:41:19;-1.70;99.90
22633;DHT22;11483;55.828;37.488;2022-12-29T05:43:45;-1.70;99.90
22633;DHT22;11483;55.828;37.488;2022-12-29T05:46:11;-1.70;99.90
22633;DHT22;11483;55.828;37.488;2022-12-29T05:48:36;-1.70;99.90
22633;DHT22;11483;55.828;37.488;2022-12-29T05:51:02;-1.80;99.90
22633;DHT22;11483;55.828;37.488;2022-12-29T05:53:28;-1.80;99.90
22633;DHT22;11483;55.828;37.488;2022-12-29T05:55:54;-1.90;99.90
22633;DHT22;11483;55.828;37.488;2022-12-29T05:58:20;-1.90;99.90
22633;DHT22;11483;55.828;37.488;2022-12-29T06:00:45;-1.80;99.90
22633;DHT22;11483;55.828;37.488;2022-12-29T06:03:11;-1.80;99.90
22633;DHT22;11483;55.828;37.488;2022-12-29T06:05:37;-1.90;99.90
22633;DHT22;11483;55.828;37.488;2022-12-29T06:08:03;-1.90;99.90
22633;DHT22;11483;55.828;37.488;2022-12-29T06:10:29;-1.90;99.90
22633;DHT22;11483;55.828;37.488;2022-12-29T06:12:55;-1.90;99.90
22633;DHT22;11483;55.828;37.488;2022-12-29T06:15:21;-1.90;99.90
22633;DHT22;11483;55.828;37.488;2022-12-29T06:17:47;-1.90;99.90
22633;DHT22;11483;55.828;37.488;2022-12-29T06:20:13;-1.80;99.90
22633;DHT22;11483;55.828;37.488;2022-12-29T06:22:39;-1.80;99.90
22633;DHT22;11483;55.828;37.488;2022-12-29T06:25:05;-1.80;99.90
22633;DHT22;11483;55.828;37.488;2022-12-29T06:27:31;-1.80;99.90
22633;DHT22;11483;55.828;37.488;2022-12-29T06:29:57;-1.80;99.90
22633;DHT22;11483;55.828;37.488;2022-12-29T06:32:23;-1.80;99.90
22633;DHT22;11483;55.828;37.488;2022-12-29T06:34:49;-1.80;99.90
22633;DHT22;11483;55.828;37.488;2022-12-29T06:37:15;-1.80;99.90
22633;DHT22;11483;55.828;37.488;2022-12-29T06:39:41;-1.80;99.90
22633;DHT22;11483;55.828;37.488;2022-12-29T06:42:09;-1.80;99.90
22633;DHT22;11483;55.828;37.488;2022-12-29T06:44:35;-1.80;99.90
22633;DHT22;11483;55.828;37.488;2022-12-29T06:47:01;-1.80;99.90
22633;DHT22;11483;55.828;37.488;2022-12-29T06:49:26;-1.70;99.90
22633;DHT22;11483;55.828;37.488;2022-12-29T06:51:52;-1.60;99.90
22633;DHT22;11483;55.828;37.488;2022-12-29T06:54:18;-1.60;99.90
22633;DHT22;11483;55.828;37.488;2022-12-29T06:56:44;-1.60;99.90
22633;DHT22;11483;55.828;37.488;2022-12-29T06:59:10;-1.50;99.90
22633;DHT22;11483;55.828;37.488;2022-12-29T07:01:36;-1.40;99.90
22633;DHT22;11483;55.828;37.488;2022-12-29T07:04:03;-1.40;99.90
22633;DHT22;11483;55.828;37.488;2022-12-29T07:06:29;-1.40;99.90
22633;DHT22;11483;55.828;37.488;2022-12-29T07:08:54;-1.40;99.90
22633;DHT22;11483;55.828;37.488;2022-12-29T07:11:23;-1.40;99.90
22633;DHT22;11483;55.828;37.488;2022-12-29T07:13:49;-1.40;99.90
22633;DHT22;11483;55.828;37.488;2022-12-29T07:16:15;-1.40;99.90
22633;DHT22;11483;55.828;37.488;2022-12-29T07:18:41;-1.40;99.90
22633;DHT22;11483;55.828;37.488;2022-12-29T07:21:06;-1.70;99.90
22633;DHT22;11483;55.828;37.488;2022-12-29T07:23:32;-1.50;99.90
22633;DHT22;11483;55.828;37.488;2022-12-29T07:26:03;-1.50;99.90
22633;DHT22;11483;55.828;37.488;2022-12-29T07:28:30;-1.40;99.90
22633;DHT22;11483;55.828;37.488;2022-12-29T07:30:56;-1.30;99.90
22633;DHT22;11483;55.828;37.488;2022-12-29T07:33:22;-1.30;99.90
22633;DHT22;11483;55.828;37.488;2022-12-29T07:35:47;-1.20;99.90
22633;DHT22;11483;55.828;37.488;2022-12-29T07:38:13;-1.20;99.90
22633;DHT22;11483;55.828;37.488;2022-12-29T07:40:40;-1.20;99.90
22633;DHT22;11483;55.828;37.488;2022-12-29T07:43:06;-1.20;99.90
22633;DHT22;11483;55.828;37.488;2022-12-29T07:45:32;-1.30;99.90
22633;DHT22;11483;55.828;37.488;2022-12-29T07:47:58;-1.20;99.90
22633;DHT22;11483;55.828;37.488;2022-12-29T07:50:23;-1.20;99.90
22633;DHT22;11483;55.828;37.488;2022-12-29T07:52:49;-1.20;99.90
22633;DHT22;11483;55.828;37.488;2022-12-29T07:55:16;-1.20;99.90
22633;DHT22;11483;55.828;37.488;2022-12-29T07:57:42;-1.20;99.90
22633;DHT22;11483;55.828;37.488;2022-12-29T08:00:09;-1.20;99.90
22633;DHT22;11483;55.828;37.488;2022-12-29T08:02:35;-1.30;99.90
22633;DHT22;11483;55.828;37.488;2022-12-29T08:05:01;-1.10;99.90
22633;DHT22;11483;55.828;37.488;2022-12-29T08:07:27;-1.00;99.90
22633;DHT22;11483;55.828;37.488;2022-12-29T08:09:53;-1.00;99.90
22633;DHT22;11483;55.828;37.488;2022-12-29T08:12:19;-1.00;99.90
22633;DHT22;11483;55.828;37.488;2022-12-29T08:14:45;-1.00;99.90
22633;DHT22;11483;55.828;37.488;2022-12-29T08:17:10;-1.00;99.90
22633;DHT22;11483;55.828;37.488;2022-12-29T08:19:37;-1.00;99.90
22633;DHT22;11483;55.828;37.488;2022-12-29T08:22:03;-0.90;99.90
22633;DHT22;11483;55.828;37.488;2022-12-29T08:24:28;-0.80;99.90
22633;DHT22;11483;55.828;37.488;2022-12-29T08:26:55;-0.80;99.90
22633;DHT22;11483;55.828;37.488;2022-12-29T08:29:21;-0.70;99.90
22633;DHT22;11483;55.828;37.488;2022-12-29T08:31:47;-0.60;99.90
22633;DHT22;11483;55.828;37.488;2022-12-29T08:34:13;-0.60;99.90
22633;DHT22;11483;55.828;37.488;2022-12-29T08:36:39;-0.60;99.90
22633;DHT22;11483;55.828;37.488;2022-12-29T08:39:05;-0.70;99.90
22633;DHT22;11483;55.828;37.488;2022-12-29T08:41:31;-0.80;99.90
22633;DHT22;11483;55.828;37.488;2022-12-29T08:43:57;-0.90;99.90
22633;DHT22;11483;55.828;37.488;2022-12-29T08:46:23;-0.90;99.90
22633;DHT22;11483;55.828;37.488;2022-12-29T08:48:49;-0.80;99.90
22633;DHT22;11483;55.828;37.488;2022-12-29T08:51:15;-0.80;99.90
22633;DHT22;11483;55.828;37.488;2022-12-29T08:53:40;-0.70;99.90
22633;DHT22;11483;55.828;37.488;2022-12-29T08:56:08;-0.70;99.90
22633;DHT22;11483;55.828;37.488;2022-12-29T08:58:35;-0.70;99.90
22633;DHT22;11483;55.828;37.488;2022-12-29T09:01:01;-0.60;99.90
22633;DHT22;11483;55.828;37.488;2022-12-29T09:03:27;-0.60;99.90
22633;DHT22;11483;55.828;37.488;2022-12-29T09:05:54;-0.50;99.90
22633;DHT22;11483;55.828;37.488;2022-12-29T09:08:21;-0.40;99.90
22633;DHT22;11483;55.828;37.488;2022-12-29T09:10:47;-0.40;99.90
22633;DHT22;11483;55.828;37.488;2022-12-29T09:13:14;-0.50;99.90
22633;DHT22;11483;55.828;37.488;2022-12-29T09:15:40;-0.50;99.90
22633;DHT22;11483;55.828;37.488;2022-12-29T09:18:08;-0.50;99.90
22633;DHT22;11483;55.828;37.488;2022-12-29T09:20:33;-0.50;99.90
22633;DHT22;11483;55.828;37.488;2022-12-29T09:22:59;-0.40;99.90
22633;DHT22;11483;55.828;37.488;2022-12-29T09:25:25;-0.40;99.90
22633;DHT22;11483;55.828;37.488;2022-12-29T09:27:52;-0.40;99.90
22633;DHT22;11483;55.828;37.488;2022-12-29T09:30:19;-0.30;99.90
22633;DHT22;11483;55.828;37.488;2022-12-29T09:32:46;-0.40;99.90
22633;DHT22;11483;55.828;37.488;2022-12-29T09:35:13;-0.30;99.90
22633;DHT22;11483;55.828;37.488;2022-12-29T09:37:39;-0.10;99.90
22633;DHT22;11483;55.828;37.488;2022-12-29T09:40:06;-0.10;99.90
22633;DHT22;11483;55.828;37.488;2022-12-29T09:42:45;-0.10;99.90
22633;DHT22;11483;55.828;37.488;2022-12-29T09:45:20;-0.20;99.90
22633;DHT22;11483;55.828;37.488;2022-12-29T09:47:50;-0.30;99.90
22633;DHT22;11483;55.828;37.488;2022-12-29T09:50:29;-0.20;99.90
22633;DHT22;11483;55.828;37.488;2022-12-29T09:55:35;-0.20;99.90
22633;DHT22;11483;55.828;37.488;2022-12-29T09:58:05;-0.20;99.90
22633;DHT22;11483;55.828;37.488;2022-12-29T10:01:04;-0.30;99.90
22633;DHT22;11483;55.828;37.488;2022-12-29T10:03:49;-0.40;99.90
22633;DHT22;11483;55.828;37.488;2022-12-29T10:06:23;-0.50;99.90
22633;DHT22;11483;55.828;37.488;2022-12-29T10:09:15;-0.60;99.90
22633;DHT22;11483;55.828;37.488;2022-12-29T10:12:22;-0.70;99.90
22633;DHT22;11483;55.828;37.488;2022-12-29T10:15:03;-0.80;99.90
22633;DHT22;11483;55.828;37.488;2022-12-29T10:20:25;-0.70;99.90
22633;DHT22;11483;55.828;37.488;2022-12-29T10:25:33;-0.60;99.90
22633;DHT22;11483;55.828;37.488;2022-12-29T10:28:06;-0.60;99.90
22633;DHT22;11483;55.828;37.488;2022-12-29T10:30:36;-0.50;99.90
22633;DHT22;11483;55.828;37.488;2022-12-29T10:33:06;-0.50;99.90
22633;DHT22;11483;55.828;37.488;2022-12-29T10:35:36;-0.40;99.90
22633;DHT22;11483;55.828;37.488;2022-12-29T10:41:23;-0.30;99.90
22633;DHT22;11483;55.828;37.488;2022-12-29T10:43:57;-0.20;99.90
22633;DHT22;11483;55.828;37.488;2022-12-29T10:46:26;-0.30;99.90
22633;DHT22;11483;55.828;37.488;2022-12-29T10:48:53;-0.30;99.90
22633;DHT22;11483;55.828;37.488;2022-12-29T10:51:22;-0.30;99.90
22633;DHT22;11483;55.828;37.488;2022-12-29T10:56:39;-0.20;99.90
22633;DHT22;11483;55.828;37.488;2022-12-29T10:59:30;-0.10;99.90
22633;DHT22;11483;55.828;37.488;2022-12-29T11:07:11;0.00;99.90
22633;DHT22;11483;55.828;37.488;2022-12-29T11:09:38;0.10;99.90
22633;DHT22;11483;55.828;37.488;2022-12-29T11:12:27;0.10;99.90
22633;DHT22;11483;55.828;37.488;2022-12-29T11:15:14;0.30;99.90
22633;DHT22;11483;55.828;37.488;2022-12-29T11:20:38;0.10;99.90
22633;DHT22;11483;55.828;37.488;2022-12-29T11:23:21;0.10;99.90
22633;DHT22;11483;55.828;37.488;2022-12-29T11:26:12;0.10;99.90
22633;DHT22;11483;55.828;37.488;2022-12-29T11:28:40;0.00;99.90
22633;DHT22;11483;55.828;37.488;2022-12-29T11:31:08;0.00;99.90
22633;DHT22;11483;55.828;37.488;2022-12-29T11:33:38;0.10;99.90
22633;DHT22;11483;55.828;37.488;2022-12-29T11:38:46;0.20;99.90
22633;DHT22;11483;55.828;37.488;2022-12-29T11:41:23;0.20;99.90
22633;DHT22;11483;55.828;37.488;2022-12-29T11:43:51;0.10;99.90
22633;DHT22;11483;55.828;37.488;2022-12-29T11:46:28;0.10;99.90
22633;DHT22;11483;55.828;37.488;2022-12-29T11:48:58;0.10;99.90
22633;DHT22;11483;55.828;37.488;2022-12-29T11:51:39;0.10;99.90
22633;DHT22;11483;55.828;37.488;2022-12-29T11:54:09;0.20;99.90
22633;DHT22;11483;55.828;37.488;2022-12-29T11:56:42;0.10;99.90
22633;DHT22;11483;55.828;37.488;2022-12-29T12:01:53;0.10;99.90
22633;DHT22;11483;55.828;37.488;2022-12-29T12:04:26;0.20;99.90
22633;DHT22;11483;55.828;37.488;2022-12-29T12:07:01;0.20;99.90
22633;DHT22;11483;55.828;37.488;2022-12-29T12:09:36;0.20;99.90
22633;DHT22;11483;55.828;37.488;2022-12-29T12:12:05;0.20;99.90
22633;DHT22;11483;55.828;37.488;2022-12-29T12:14:43;0.20;99.90
22633;DHT22;11483;55.828;37.488;2022-12-29T12:17:31;0.20;99.90
22633;DHT22;11483;55.828;37.488;2022-12-29T12:23:56;0.20;99.90
22633;DHT22;11483;55.828;37.488;2022-12-29T12:26:03;0.10;99.90
22633;DHT22;11483;55.828;37.488;2022-12-29T12:28:35;0.10;99.90
22633;DHT22;11483;55.828;37.488;2022-12-29T12:31:06;0.10;99.90
22633;DHT22;11483;55.828;37.488;2022-12-29T12:33:42;0.10;99.90
22633;DHT22;11483;55.828;37.488;2022-12-29T12:37:00;0.10;99.90
22633;DHT22;11483;55.828;37.488;2022-12-29T12:44:54;0.30;99.90
22633;DHT22;11483;55.828;37.488;2022-12-29T12:53:29;0.30;99.90
22633;DHT22;11483;55.828;37.488;2022-12-29T12:56:03;0.30;99.90
22633;DHT22;11483;55.828;37.488;2022-12-29T13:03:59;0.30;99.90
22633;DHT22;11483;55.828;37.488;2022-12-29T13:09:30;0.40;99.90
22633;DHT22;11483;55.828;37.488;2022-12-29T13:12:46;0.40;99.90
22633;DHT22;11483;55.828;37.488;2022-12-29T13:15:29;0.30;99.90
22633;DHT22;11483;55.828;37.488;2022-12-29T13:23:46;0.20;99.90
22633;DHT22;11483;55.828;37.488;2022-12-29T13:26:24;0.20;99.90
22633;DHT22;11483;55.828;37.488;2022-12-29T13:37:17;0.10;99.90
22633;DHT22;11483;55.828;37.488;2022-12-29T13:40:13;0.10;99.90
22633;DHT22;11483;55.828;37.488;2022-12-29T13:42:41;0.10;99.90
22633;DHT22;11483;55.828;37.488;2022-12-29T13:45:13;0.10;99.90
22633;DHT22;11483;55.828;37.488;2022-12-29T13:51:01;0.20;99.90
22633;DHT22;11483;55.828;37.488;2022-12-29T13:53:42;0.20;99.90
22633;DHT22;11483;55.828;37.488;2022-12-29T13:56:21;0.40;99.90
22633;DHT22;11483;55.828;37.488;2022-12-29T14:05:15;0.70;99.90
22633;DHT22;11483;55.828;37.488;2022-12-29T14:07:59;0.80;99.90
22633;DHT22;11483;55.828;37.488;2022-12-29T14:10:54;0.80;99.90
22633;DHT22;11483;55.828;37.488;2022-12-29T14:13:30;0.80;99.90
22633;DHT22;11483;55.828;37.488;2022-12-29T14:15:58;0.80;99.90
22633;DHT22;11483;55.828;37.488;2022-12-29T14:18:28;0.90;99.90
22633;DHT22;11483;55.828;37.488;2022-12-29T14:21:01;0.90;99.90
22633;DHT22;11483;55.828;37.488;2022-12-29T14:23:40;0.90;99.90
22633;DHT22;11483;55.828;37.488;2022-12-29T14:28:35;0.90;99.90
22633;DHT22;11483;55.828;37.488;2022-12-29T14:31:03;1.00;99.90
22633;DHT22;11483;55.828;37.488;2022-12-29T14:33:33;1.00;99.90
22633;DHT22;11483;55.828;37.488;2022-12-29T14:36:39;1.00;99.90
22633;DHT22;11483;55.828;37.488;2022-12-29T14:42:04;1.10;99.90
22633;DHT22;11483;55.828;37.488;2022-12-29T14:44:31;1.10;99.90
22633;DHT22;11483;55.828;37.488;2022-12-29T14:47:05;1.20;99.90
22633;DHT22;11483;55.828;37.488;2022-12-29T14:49:40;1.20;99.90
22633;DHT22;11483;55.828;37.488;2022-12-29T14:54:46;1.20;99.90
22633;DHT22;11483;55.828;37.488;2022-12-29T14:57:34;1.10;99.90
22633;DHT22;11483;55.828;37.488;2022-12-29T15:02:41;1.10;99.90
22633;DHT22;11483;55.828;37.488;2022-12-29T15:05:32;1.10;99.90
22633;DHT22;11483;55.828;37.488;2022-12-29T15:08:00;1.10;99.90
22633;DHT22;11483;55.828;37.488;2022-12-29T15:10:37;1.10;99.90
22633;DHT22;11483;55.828;37.488;2022-12-29T15:13:10;1.10;99.90
22633;DHT22;11483;55.828;37.488;2022-12-29T15:15:40;1.10;99.90
22633;DHT22;11483;55.828;37.488;2022-12-29T15:18:27;1.10;99.90
22633;DHT22;11483;55.828;37.488;2022-12-29T15:21:02;1.00;99.90
22633;DHT22;11483;55.828;37.488;2022-12-29T15:23:31;1.00;99.90
22633;DHT22;11483;55.828;37.488;2022-12-29T15:26:02;1.00;99.90
22633;DHT22;11483;55.828;37.488;2022-12-29T15:28:41;1.00;99.90
22633;DHT22;11483;55.828;37.488;2022-12-29T15:31:24;1.00;99.90
22633;DHT22;11483;55.828;37.488;2022-12-29T15:34:01;1.10;99.90
22633;DHT22;11483;55.828;37.488;2022-12-29T15:36:29;1.10;99.90
22633;DHT22;11483;55.828;37.488;2022-12-29T15:39:23;1.10;99.90
22633;DHT22;11483;55.828;37.488;2022-12-29T15:41:59;1.10;99.90
22633;DHT22;11483;55.828;37.488;2022-12-29T15:44:38;1.20;99.90
22633;DHT22;11483;55.828;37.488;2022-12-29T15:47:20;1.20;99.90
22633;DHT22;11483;55.828;37.488;2022-12-29T15:49:52;1.20;99.90
22633;DHT22;11483;55.828;37.488;2022-12-29T15:52:21;1.20;99.90
22633;DHT22;11483;55.828;37.488;2022-12-29T15:54:52;1.30;99.90
22633;DHT22;11483;55.828;37.488;2022-12-29T15:57:30;1.30;99.90
22633;DHT22;11483;55.828;37.488;2022-12-29T15:59:57;1.30;99.90
22633;DHT22;11483;55.828;37.488;2022-12-29T16:02:25;1.30;99.90
22633;DHT22;11483;55.828;37.488;2022-12-29T16:04:52;1.40;99.90
22633;DHT22;11483;55.828;37.488;2022-12-29T16:07:33;1.40;99.90
22633;DHT22;11483;55.828;37.488;2022-12-29T16:10:03;1.30;99.90
22633;DHT22;11483;55.828;37.488;2022-12-29T16:12:34;1.30;99.90
22633;DHT22;11483;55.828;37.488;2022-12-29T16:15:04;1.30;99.90
22633;DHT22;11483;55.828;37.488;2022-12-29T16:17:33;1.30;99.90
22633;DHT22;11483;55.828;37.488;2022-12-29T16:20:20;1.30;99.90
22633;DHT22;11483;55.828;37.488;2022-12-29T16:22:49;1.30;99.90
22633;DHT22;11483;55.828;37.488;2022-12-29T16:27:50;1.30;99.90
22633;DHT22;11483;55.828;37.488;2022-12-29T16:30:22;1.30;99.90
22633;DHT22;11483;55.828;37.488;2022-12-29T16:32:51;1.30;99.90
22633;DHT22;11483;55.828;37.488;2022-12-29T16:35:23;1.20;99.90
22633;DHT22;11483;55.828;37.488;2022-12-29T16:38:22;1.20;99.90
22633;DHT22;11483;55.828;37.488;2022-12-29T16:40:53;1.20;99.90
22633;DHT22;11483;55.828;37.488;2022-12-29T16:43:27;1.20;99.90
22633;DHT22;11483;55.828;37.488;2022-12-29T16:48:34;1.30;99.90
22633;DHT22;11483;55.828;37.488;2022-12-29T16:51:16;1.30;99.90
22633;DHT22;11483;55.828;37.488;2022-12-29T16:53:56;1.30;99.90
22633;DHT22;11483;55.828;37.488;2022-12-29T16:56:26;1.30;99.90
22633;DHT22;11483;55.828;37.488;2022-12-29T16:59:16;1.40;99.90
22633;DHT22;11483;55.828;37.488;2022-12-29T17:01:45;1.30;99.90
22633;DHT22;11483;55.828;37.488;2022-12-29T17:04:13;1.30;99.90
22633;DHT22;11483;55.828;37.488;2022-12-29T17:06:39;1.30;99.90
22633;DHT22;11483;55.828;37.488;2022-12-29T17:09:24;1.30;99.90
22633;DHT22;11483;55.828;37.488;2022-12-29T17:11:54;1.20;99.90
22633;DHT22;11483;55.828;37.488;2022-12-29T17:17:04;1.20;99.90
22633;DHT22;11483;55.828;37.488;2022-12-29T17:19:33;1.20;99.90
22633;DHT22;11483;55.828;37.488;2022-12-29T17:22:00;1.20;99.90
22633;DHT22;11483;55.828;37.488;2022-12-29T17:24:26;1.20;99.90
22633;DHT22;11483;55.828;37.488;2022-12-29T17:26:55;1.30;99.90
22633;DHT22;11483;55.828;37.488;2022-12-29T17:29:34;1.40;99.90
22633;DHT22;11483;55.828;37.488;2022-12-29T17:32:03;1.40;99.90
22633;DHT22;11483;55.828;37.488;2022-12-29T17:34:31;1.40;99.90
22633;DHT22;11483;55.828;37.488;2022-12-29T17:36:57;1.40;99.90
22633;DHT22;11483;55.828;37.488;2022-12-29T17:39:23;1.40;99.90
22633;DHT22;11483;55.828;37.488;2022-12-29T17:41:49;1.40;99.90
22633;DHT22;11483;55.828;37.488;2022-12-29T17:44:17;1.40;99.90
22633;DHT22;11483;55.828;37.488;2022-12-29T17:46:44;1.40;99.90
22633;DHT22;11483;55.828;37.488;2022-12-29T17:49:15;1.40;99.90
22633;DHT22;11483;55.828;37.488;2022-12-29T17:51:42;1.40;99.90
22633;DHT22;11483;55.828;37.488;2022-12-29T17:54:23;1.50;99.90
22633;DHT22;11483;55.828;37.488;2022-12-29T17:56:50;1.50;99.90